Time;durP1;ratioP1;P1;durP2;ratioP2;P2;SDS_P1;SDS_P2;PMS_P1;PMS_P2;Temp;Humidity;BMP_temperature;BMP_pressure;BME280_temperature;BME280_humidity;BME280_pressure;Samples;Min_cycle;Max_cycle;Signal;HPM_P1;HPM_P2
2023/05/06 00:02:11;;;;;;;19.20;10.88;;;;;;;13.93;100.00;100668.59;5118449;29;20089;-72
2023/05/06 00:04:42;;;;;;;20.23;11.70;;;;;;;14.00;100.00;100666.53;5119260;29;20230;-72
2023/05/06 00:07:12;;;;;;;18.63;11.75;;;;;;;13.96;100.00;100665.00;5117351;28;20031;-71
2023/05/06 00:09:42;;;;;;;21.65;11.38;;;;;;;13.87;100.00;100663.66;5108799;28;20031;-71
2023/05/06 00:12:13;;;;;;;19.42;11.32;;;;;;;13.95;100.00;100671.16;5117584;28;20055;-72
2023/05/06 00:14:43;;;;;;;17.98;11.05;;;;;;;14.01;100.00;100666.47;5119584;28;20027;-72
2023/05/06 00:17:13;;;;;;;20.60;11.85;;;;;;;14.00;100.00;100670.03;5118511;28;20129;-73
2023/05/06 00:19:44;;;;;;;19.40;11.48;;;;;;;14.01;100.00;100665.63;5119146;28;20114;-71
2023/05/06 00:22:14;;;;;;;20.73;12.15;;;;;;;13.99;100.00;100664.84;5118768;29;20106;-72
2023/05/06 00:24:45;;;;;;;18.65;12.02;;;;;;;13.97;100.00;100666.69;5119608;29;20027;-72
2023/05/06 00:27:15;;;;;;;20.75;12.65;;;;;;;14.02;100.00;100664.69;5118192;28;20178;-71
2023/05/06 00:29:45;;;;;;;21.75;12.60;;;;;;;14.01;100.00;100666.47;5119058;28;20051;-72
2023/05/06 00:32:16;;;;;;;21.85;12.57;;;;;;;13.99;100.00;100660.44;5118759;28;20509;-71
2023/05/06 00:34:46;;;;;;;21.55;12.82;;;;;;;14.06;100.00;100659.22;5119300;29;20125;-71
2023/05/06 00:37:16;;;;;;;23.08;12.75;;;;;;;14.07;100.00;100660.09;5118551;28;20389;-71
2023/05/06 00:39:47;;;;;;;20.02;12.38;;;;;;;14.06;100.00;100664.47;5119185;28;20031;-72
2023/05/06 00:42:17;;;;;;;21.77;12.43;;;;;;;14.06;100.00;100658.38;5118695;29;20059;-71
2023/05/06 00:44:50;;;;;;;22.42;12.35;;;;;;;14.04;100.00;100662.84;5118879;29;20035;-73
2023/05/06 00:47:21;;;;;;;20.80;12.40;;;;;;;13.99;100.00;100659.59;5117752;28;20031;-72
2023/05/06 00:49:51;;;;;;;22.55;13.00;;;;;;;13.97;100.00;100664.94;5115379;29;20085;-72
2023/05/06 00:52:21;;;;;;;20.02;12.63;;;;;;;14.02;100.00;100657.66;5116815;29;20481;-70
2023/05/06 00:54:52;;;;;;;23.48;13.43;;;;;;;14.04;100.00;100657.56;5114937;29;20485;-72
2023/05/06 00:57:23;;;;;;;20.02;12.15;;;;;;;14.05;100.00;100661.94;5117585;28;20389;-71
2023/05/06 00:59:54;;;;;;;18.90;12.10;;;;;;;14.10;100.00;100660.75;5117864;29;20031;-71
2023/05/06 01:02:24;;;;;;;21.70;13.02;;;;;;;14.12;100.00;100658.91;5121245;29;20031;-72
2023/05/06 01:04:55;;;;;;;19.67;12.75;;;;;;;14.10;100.00;100667.81;5121730;29;20473;-70
2023/05/06 01:07:46;;;;;;;22.05;12.90;;;;;;;14.14;100.00;100672.84;5120391;28;20481;-71
2023/05/06 01:10:31;;;;;;;21.00;13.35;;;;;;;14.07;100.00;100663.53;5120083;29;20452;-72
2023/05/06 01:13:08;;;;;;;22.83;13.63;;;;;;;14.12;100.00;100669.41;5120264;28;20125;-70
2023/05/06 01:15:48;;;;;;;18.17;11.88;;;;;;;14.19;100.00;100663.00;5119964;28;20501;-72
2023/05/06 01:18:21;;;;;;;20.27;12.52;;;;;;;14.23;100.00;100676.84;5119560;28;20027;-72
2023/05/06 01:20:53;;;;;;;20.73;12.57;;;;;;;14.22;100.00;100675.16;5121454;29;20034;-72
2023/05/06 01:23:24;;;;;;;17.80;11.43;;;;;;;14.20;100.00;100671.72;5121132;28;20057;-71
2023/05/06 01:25:54;;;;;;;20.83;12.32;;;;;;;14.17;100.00;100679.75;5120800;28;20106;-71
2023/05/06 01:28:24;;;;;;;20.77;13.27;;;;;;;14.18;100.00;100677.06;5120031;28;20433;-71
2023/05/06 01:30:59;;;;;;;20.02;13.70;;;;;;;14.28;100.00;100675.66;5120792;29;20031;-72
2023/05/06 01:33:40;;;;;;;27.40;14.32;;;;;;;14.31;100.00;100679.94;5120777;28;20085;-72
2023/05/06 01:36:31;;;;;;;21.52;13.70;;;;;;;14.39;100.00;100683.91;5118979;29;20381;-72
2023/05/06 01:39:09;;;;;;;23.17;12.75;;;;;;;14.34;100.00;100685.03;5119170;28;20028;-72
2023/05/06 01:41:40;;;;;;;22.05;13.45;;;;;;;14.32;100.00;100685.13;5120114;28;20031;-71
2023/05/06 01:44:12;;;;;;;23.75;14.50;;;;;;;14.35;100.00;100686.75;5117629;28;20490;-70
2023/05/06 01:46:44;;;;;;;25.75;14.75;;;;;;;14.27;100.00;100694.16;5121611;29;20027;-73
2023/05/06 01:49:17;;;;;;;25.88;15.32;;;;;;;14.41;100.00;100691.72;5119103;29;20580;-73
2023/05/06 01:51:49;;;;;;;22.98;14.07;;;;;;;14.36;100.00;100685.81;5120596;28;20102;-73
2023/05/06 01:54:19;;;;;;;25.75;15.27;;;;;;;14.29;100.00;100687.06;5119241;29;20082;-71
2023/05/06 01:56:49;;;;;;;28.80;15.60;;;;;;;14.35;100.00;100689.38;5120669;28;20425;-71
2023/05/06 01:59:20;;;;;;;25.50;15.20;;;;;;;14.42;100.00;100693.41;5119215;28;20027;-71
2023/05/06 02:01:50;;;;;;;25.83;15.38;;;;;;;14.36;100.00;100691.06;5120201;29;20134;-71
2023/05/06 02:04:20;;;;;;;28.50;15.82;;;;;;;14.38;100.00;100694.47;5119145;29;20027;-70
2023/05/06 02:06:50;;;;;;;27.52;15.85;;;;;;;14.28;100.00;100690.63;5120183;29;20426;-70
2023/05/06 02:09:21;;;;;;;29.88;16.23;;;;;;;14.27;100.00;100683.66;5116949;28;20106;-71
2023/05/06 02:11:51;;;;;;;27.38;15.68;;;;;;;14.26;100.00;100684.59;5120002;28;20117;-71
2023/05/06 02:14:21;;;;;;;26.90;15.32;;;;;;;14.30;100.00;100688.75;5120461;29;20512;-71
2023/05/06 02:16:52;;;;;;;26.88;16.33;;;;;;;14.19;100.00;100684.03;5120348;29;20069;-71
2023/05/06 02:19:22;;;;;;;26.50;16.10;;;;;;;14.29;100.00;100687.06;5118599;28;20030;-71
2023/05/06 02:21:52;;;;;;;29.95;16.55;;;;;;;14.16;100.00;100684.19;5120674;29;20035;-70
2023/05/06 02:24:23;;;;;;;28.42;16.83;;;;;;;14.16;100.00;100680.69;5119914;28;20541;-69
2023/05/06 02:26:54;;;;;;;28.95;16.33;;;;;;;14.12;100.00;100679.09;5119852;28;20035;-69
2023/05/06 02:29:24;;;;;;;30.80;16.67;;;;;;;14.05;100.00;100677.72;5119088;29;22094;-72
2023/05/06 02:31:55;;;;;;;31.50;17.02;;;;;;;14.21;100.00;100681.31;5119638;29;20437;-71
2023/05/06 02:34:25;;;;;;;31.67;15.48;;;;;;;14.13;100.00;100678.16;5120243;28;20488;-72
2023/05/06 02:36:56;;;;;;;26.08;15.13;;;;;;;14.14;100.00;100674.63;5118501;29;20066;-71
2023/05/06 02:39:26;;;;;;;25.95;14.80;;;;;;;14.16;100.00;100678.06;5114259;28;20023;-70
2023/05/06 02:41:56;;;;;;;22.77;13.90;;;;;;;14.12;100.00;100672.03;5120759;28;20031;-70
2023/05/06 02:44:27;;;;;;;26.05;14.02;;;;;;;14.09;100.00;100676.63;5120013;28;20519;-69
2023/05/06 02:46:57;;;;;;;23.27;13.10;;;;;;;14.13;100.00;100675.53;5118888;29;20126;-70
2023/05/06 02:49:27;;;;;;;21.52;12.95;;;;;;;14.05;100.00;100680.34;5119035;28;20027;-70
2023/05/06 02:51:58;;;;;;;22.98;12.70;;;;;;;14.06;100.00;100680.25;5349523;23;20061;-75
2023/05/06 02:54:28;;;;;;;26.05;13.75;;;;;;;14.04;100.00;100681.22;5145761;28;20028;-75
2023/05/06 02:56:58;;;;;;;25.38;12.73;;;;;;;14.01;100.00;100682.25;5146906;28;20488;-76
2023/05/06 02:59:29;;;;;;;19.77;11.68;;;;;;;13.98;100.00;100679.78;5142448;28;20031;-75
2023/05/06 03:01:59;;;;;;;18.17;11.07;;;;;;;13.98;100.00;100681.53;5145688;28;20404;-76
2023/05/06 03:04:29;;;;;;;23.23;11.40;;;;;;;13.88;100.00;100680.28;5146243;28;20504;-75
2023/05/06 03:07:00;;;;;;;21.92;11.98;;;;;;;13.91;100.00;100688.00;5143748;28;20460;-76
2023/05/06 03:09:30;;;;;;;24.02;12.98;;;;;;;13.89;100.00;100681.97;5140690;28;20026;-76
2023/05/06 03:12:01;;;;;;;19.35;11.23;;;;;;;13.83;100.00;100677.88;5145760;28;20318;-75
2023/05/06 03:14:31;;;;;;;21.10;12.43;;;;;;;13.83;100.00;100679.63;5145771;28;20031;-73
2023/05/06 03:17:02;;;;;;;22.48;12.80;;;;;;;13.82;100.00;100672.66;5146165;28;20038;-75
2023/05/06 03:19:32;;;;;;;20.00;11.25;;;;;;;13.75;100.00;100679.97;5140909;28;20117;-75
2023/05/06 03:22:02;;;;;;;20.75;11.32;;;;;;;13.79;100.00;100680.69;5143764;28;20485;-74
2023/05/06 03:24:33;;;;;;;17.98;11.40;;;;;;;13.84;100.00;100684.81;5141935;28;20038;-76
2023/05/06 03:27:03;;;;;;;19.63;12.13;;;;;;;13.87;100.00;100683.81;5144699;28;20499;-75
2023/05/06 03:29:33;;;;;;;19.45;11.65;;;;;;;13.91;100.00;100690.66;5146352;28;20142;-76
2023/05/06 03:32:04;;;;;;;18.50;11.10;;;;;;;13.84;100.00;100683.94;5145542;28;20157;-76
2023/05/06 03:34:35;;;;;;;19.80;11.20;;;;;;;13.77;100.00;100690.44;5141759;28;20460;-75
2023/05/06 03:37:05;;;;;;;22.40;12.13;;;;;;;13.67;100.00;100687.38;5140476;28;20030;-74
2023/05/06 03:39:35;;;;;;;20.33;12.02;;;;;;;13.71;100.00;100693.34;5140584;28;20137;-76
2023/05/06 03:42:06;;;;;;;21.92;12.05;;;;;;;13.76;100.00;100689.56;5145144;28;20018;-75
2023/05/06 03:44:37;;;;;;;19.92;11.75;;;;;;;13.69;100.00;100695.16;5139759;28;20401;-73
2023/05/06 03:47:07;;;;;;;20.25;11.85;;;;;;;13.77;100.00;100688.63;5143238;28;20396;-75
2023/05/06 03:49:37;;;;;;;19.73;11.68;;;;;;;13.73;100.00;100686.25;5143065;28;20120;-74
2023/05/06 03:52:08;;;;;;;20.95;12.18;;;;;;;13.61;100.00;100692.06;5142646;28;20285;-76
2023/05/06 03:54:38;;;;;;;20.80;12.88;;;;;;;13.69;100.00;100695.16;5141491;28;20501;-73
2023/05/06 03:57:08;;;;;;;21.73;12.40;;;;;;;13.70;100.00;100684.59;5146337;28;20101;-75
2023/05/06 03:59:38;;;;;;;20.50;11.48;;;;;;;13.64;100.00;100697.16;5140787;28;20038;-75
2023/05/06 04:02:09;;;;;;;20.50;11.35;;;;;;;13.61;100.00;100682.38;5143935;28;20519;-75
2023/05/06 04:04:39;;;;;;;21.40;11.35;;;;;;;13.60;100.00;100688.56;5142307;28;20073;-76
2023/05/06 04:07:09;;;;;;;20.15;12.13;;;;;;;13.59;100.00;100691.28;5140085;28;20036;-73
2023/05/06 04:09:40;;;;;;;18.52;10.80;;;;;;;13.46;100.00;100691.00;5140401;28;20041;-74
2023/05/06 04:12:10;;;;;;;20.15;11.27;;;;;;;13.45;100.00;100691.06;5142154;28;20030;-74
2023/05/06 04:14:40;;;;;;;19.05;10.75;;;;;;;13.53;100.00;100689.78;5142418;28;20037;-74
2023/05/06 04:17:10;;;;;;;15.52;9.55;;;;;;;13.58;100.00;100698.28;5130947;28;20085;-75
2023/05/06 04:19:41;;;;;;;19.00;11.07;;;;;;;13.62;100.00;100692.00;5136824;28;20092;-74
2023/05/06 04:22:12;;;;;;;16.42;10.18;;;;;;;13.70;100.00;100697.75;5129486;28;20030;-72
2023/05/06 04:24:44;;;;;;;17.35;10.57;;;;;;;13.65;100.00;100699.75;5140144;28;20042;-75
2023/05/06 04:27:14;;;;;;;15.95;9.02;;;;;;;13.52;100.00;100708.22;5153807;28;20034;-74
2023/05/06 04:29:45;;;;;;;16.02;9.50;;;;;;;13.69;100.00;100705.69;5142140;28;20026;-76
2023/05/06 04:32:16;;;;;;;16.45;9.23;;;;;;;13.61;100.00;100710.44;5141035;28;20393;-76
2023/05/06 04:34:47;;;;;;;16.20;9.43;;;;;;;13.65;100.00;100704.13;5144408;28;20038;-73
2023/05/06 04:37:18;;;;;;;14.88;9.50;;;;;;;13.54;100.00;100706.41;5141227;28;20030;-74
2023/05/06 04:39:48;;;;;;;15.63;9.35;;;;;;;13.57;100.00;100712.34;5141382;28;20042;-72
2023/05/06 04:42:19;;;;;;;15.38;8.50;;;;;;;13.59;100.00;100709.66;5141795;28;20041;-75
2023/05/06 04:44:49;;;;;;;15.30;8.40;;;;;;;13.62;100.00;100712.16;5145502;28;20067;-72
2023/05/06 04:47:19;;;;;;;15.88;9.68;;;;;;;13.59;100.00;100717.53;5139442;28;20467;-76
2023/05/06 04:49:50;;;;;;;13.57;8.63;;;;;;;13.42;100.00;100718.28;5139144;28;20039;-73
2023/05/06 04:52:20;;;;;;;13.27;8.57;;;;;;;13.50;100.00;100721.44;5155420;28;20041;-73
2023/05/06 04:54:50;;;;;;;17.52;8.80;;;;;;;13.48;100.00;100722.41;5142188;28;20037;-75
2023/05/06 04:57:20;;;;;;;14.55;7.38;;;;;;;13.47;100.00;100721.59;5142890;28;20472;-73
2023/05/06 04:59:51;;;;;;;14.32;8.63;;;;;;;13.47;100.00;100712.84;5142600;28;20279;-72
2023/05/06 05:02:21;;;;;;;15.02;7.82;;;;;;;13.44;100.00;100720.84;5134131;28;20049;-74
2023/05/06 05:04:51;;;;;;;12.70;7.93;;;;;;;13.48;100.00;100731.16;5138074;28;20118;-74
2023/05/06 05:07:22;;;;;;;14.02;7.45;;;;;;;13.65;100.00;100730.38;5140631;28;20400;-75
2023/05/06 05:09:52;;;;;;;14.23;8.38;;;;;;;13.48;100.00;100736.41;5143324;28;20077;-74
2023/05/06 05:12:22;;;;;;;14.38;7.80;;;;;;;13.42;100.00;100733.22;5143580;28;20038;-74
2023/05/06 05:14:53;;;;;;;14.38;7.55;;;;;;;13.48;100.00;100740.78;5144698;28;20030;-76
2023/05/06 05:17:23;;;;;;;12.68;6.97;;;;;;;13.37;100.00;100743.06;5135093;28;20053;-72
2023/05/06 05:19:53;;;;;;;11.73;6.65;;;;;;;13.42;100.00;100743.72;5140087;28;20058;-74
2023/05/06 05:22:24;;;;;;;13.18;7.55;;;;;;;13.24;100.00;100744.53;5142939;28;20023;-75
2023/05/06 05:24:54;;;;;;;12.73;7.45;;;;;;;13.37;100.00;100745.69;5143385;28;20465;-73
2023/05/06 05:27:24;;;;;;;13.40;7.00;;;;;;;13.42;100.00;100749.78;5141850;28;20039;-73
2023/05/06 05:29:55;;;;;;;11.63;6.60;;;;;;;13.34;100.00;100748.44;5143776;28;20214;-75
2023/05/06 05:32:25;;;;;;;11.52;7.15;;;;;;;13.50;100.00;100749.47;5143343;28;20034;-74
2023/05/06 05:34:56;;;;;;;11.73;6.40;;;;;;;13.46;100.00;100746.13;5143501;28;21059;-74
2023/05/06 05:37:26;;;;;;;10.02;6.53;;;;;;;13.36;100.00;100744.81;5142921;28;20030;-76
2023/05/06 05:39:56;;;;;;;11.02;6.97;;;;;;;13.57;100.00;100753.53;5143478;28;20512;-76
2023/05/06 05:42:27;;;;;;;10.98;6.72;;;;;;;13.72;100.00;100752.84;5138928;28;20044;-75
2023/05/06 05:44:57;;;;;;;9.95;6.45;;;;;;;13.59;100.00;100751.69;5146347;28;20031;-76
2023/05/06 05:47:27;;;;;;;9.45;5.57;;;;;;;13.69;100.00;100752.97;5143868;28;20045;-76
2023/05/06 05:49:58;;;;;;;11.32;6.55;;;;;;;13.54;100.00;100759.75;5146579;28;20065;-74
2023/05/06 05:52:28;;;;;;;10.30;5.78;;;;;;;13.59;100.00;100752.53;5146760;28;20039;-75
2023/05/06 05:54:58;;;;;;;11.25;6.13;;;;;;;13.89;100.00;100755.56;5149494;28;20022;-74
2023/05/06 05:57:29;;;;;;;10.27;5.93;;;;;;;13.89;100.00;100758.19;5145754;28;20534;-75
2023/05/06 05:59:59;;;;;;;9.88;6.20;;;;;;;13.98;100.00;100760.38;5146927;28;20022;-74
2023/05/06 06:02:30;;;;;;;9.77;5.55;;;;;;;13.83;100.00;100763.69;5148885;28;20464;-74
2023/05/06 06:05:00;;;;;;;8.77;5.90;;;;;;;13.77;100.00;100774.50;5147638;28;20061;-73
2023/05/06 06:07:30;;;;;;;10.40;6.38;;;;;;;13.54;100.00;100765.00;5146664;28;20591;-75
2023/05/06 06:10:01;;;;;;;8.80;5.75;;;;;;;13.56;100.00;100775.47;5146549;28;20119;-73
2023/05/06 06:12:31;;;;;;;12.55;6.00;;;;;;;13.63;100.00;100775.13;5145212;28;20029;-74
2023/05/06 06:15:01;;;;;;;9.77;6.03;;;;;;;13.61;100.00;100779.56;5147703;28;20031;-73
2023/05/06 06:17:31;;;;;;;9.07;5.65;;;;;;;13.55;100.00;100781.63;5141102;28;20589;-73
2023/05/06 06:20:03;;;;;;;10.65;6.40;;;;;;;13.64;100.00;100787.34;5145753;28;20030;-73
2023/05/06 06:22:34;;;;;;;9.73;5.80;;;;;;;13.57;100.00;100796.38;5146338;28;20643;-74
2023/05/06 06:25:05;;;;;;;9.43;5.80;;;;;;;13.37;100.00;100795.56;5146966;28;20072;-75
2023/05/06 06:27:35;;;;;;;11.13;5.95;;;;;;;13.53;100.00;100804.47;5140773;28;20117;-76
2023/05/06 06:30:06;;;;;;;14.93;6.80;;;;;;;13.60;100.00;100798.03;5143057;28;20066;-76
2023/05/06 06:32:46;;;;;;;11.38;7.00;;;;;;;13.79;100.00;100796.28;5143146;28;20552;-75
2023/05/06 06:35:18;;;;;;;12.77;6.78;;;;;;;13.72;100.00;100795.72;5145077;28;20058;-73
2023/05/06 06:37:49;;;;;;;11.35;6.85;;;;;;;13.74;100.00;100796.50;5143226;28;20037;-75
2023/05/06 06:40:20;;;;;;;10.50;6.25;;;;;;;13.85;100.00;100804.75;5145864;28;20019;-72
2023/05/06 06:42:50;;;;;;;10.50;6.07;;;;;;;13.77;100.00;100796.34;5146005;28;20054;-76
2023/05/06 06:45:22;;;;;;;10.75;6.43;;;;;;;13.80;100.00;100805.88;5146348;28;20057;-72
2023/05/06 06:47:52;;;;;;;9.77;6.55;;;;;;;13.95;100.00;100802.56;5145610;28;20065;-75
2023/05/06 06:50:22;;;;;;;11.27;6.60;;;;;;;13.85;100.00;100801.25;5146875;28;20031;-72
2023/05/06 06:52:53;;;;;;;10.95;7.63;;;;;;;13.98;100.00;100805.03;5147436;28;20040;-74
2023/05/06 06:55:23;;;;;;;11.07;7.03;;;;;;;14.10;100.00;100805.31;5145442;28;20054;-74
2023/05/06 06:57:53;;;;;;;11.27;6.85;;;;;;;14.11;100.00;100800.94;5144943;28;20484;-75
2023/05/06 07:00:24;;;;;;;12.75;6.60;;;;;;;14.26;100.00;100808.16;5143895;28;20034;-75
2023/05/06 07:02:54;;;;;;;11.73;7.32;;;;;;;14.47;100.00;100807.13;5147655;28;20424;-73
2023/05/06 07:05:28;;;;;;;12.18;8.05;;;;;;;14.50;100.00;100812.22;5143049;28;20026;-72
2023/05/06 07:07:58;;;;;;;12.65;8.25;;;;;;;14.13;100.00;100818.34;5147330;28;20054;-76
2023/05/06 07:10:28;;;;;;;12.90;7.43;;;;;;;14.16;100.00;100814.75;5163569;28;20110;-75
2023/05/06 07:12:59;;;;;;;13.32;8.65;;;;;;;14.34;100.00;100822.63;5146278;28;20099;-75
2023/05/06 07:15:29;;;;;;;12.73;8.00;;;;;;;14.42;100.00;100824.91;5146534;28;20396;-75
2023/05/06 07:17:59;;;;;;;13.27;8.50;;;;;;;14.24;100.00;100823.16;5147361;28;20022;-76
2023/05/06 07:20:30;;;;;;;12.63;8.15;;;;;;;14.12;100.00;100829.75;5147083;28;20026;-76
2023/05/06 07:23:00;;;;;;;11.48;7.60;;;;;;;13.88;100.00;100835.31;5145545;28;20412;-76
2023/05/06 07:25:31;;;;;;;12.77;7.70;;;;;;;13.89;100.00;100823.88;5144583;28;20070;-75
2023/05/06 07:28:01;;;;;;;13.30;7.82;;;;;;;13.83;100.00;100830.25;5147140;28;20022;-75
2023/05/06 07:30:32;;;;;;;11.52;7.80;;;;;;;13.87;100.00;100841.44;5143541;28;20072;-76
2023/05/06 07:33:02;;;;;;;11.95;7.78;;;;;;;13.88;100.00;100838.75;5147600;28;20030;-75
2023/05/06 07:35:32;;;;;;;12.73;7.93;;;;;;;14.05;100.00;100845.91;5145784;28;20442;-72
2023/05/06 07:38:03;;;;;;;11.55;7.63;;;;;;;13.97;100.00;100834.88;5146860;28;20527;-72
2023/05/06 07:40:33;;;;;;;11.18;7.43;;;;;;;14.04;100.00;100846.81;5146589;28;20034;-74
2023/05/06 07:43:03;;;;;;;14.70;8.15;;;;;;;14.14;100.00;100845.47;5148069;28;20565;-76
2023/05/06 07:45:34;;;;;;;14.05;7.95;;;;;;;14.16;100.00;100849.78;5145716;28;20535;-72
2023/05/06 07:48:04;;;;;;;11.20;7.38;;;;;;;14.25;100.00;100848.50;5144851;28;20035;-72
2023/05/06 07:50:35;;;;;;;12.90;7.68;;;;;;;14.29;100.00;100839.53;5148177;28;20585;-75
2023/05/06 07:53:05;;;;;;;13.50;7.05;;;;;;;14.27;100.00;100851.91;5145116;28;20139;-76
2023/05/06 07:55:36;;;;;;;13.23;8.38;;;;;;;14.34;100.00;100855.94;5147766;28;20571;-74
2023/05/06 07:58:06;;;;;;;15.13;8.90;;;;;;;14.44;100.00;100857.25;5143606;28;20018;-73
2023/05/06 08:00:37;;;;;;;15.30;8.75;;;;;;;14.46;100.00;100863.28;5144929;28;20505;-72
2023/05/06 08:03:07;;;;;;;13.13;8.05;;;;;;;14.53;100.00;100860.28;5149059;28;20042;-72
2023/05/06 08:05:37;;;;;;;12.93;8.65;;;;;;;14.50;100.00;100855.19;5142897;28;20026;-73
2023/05/06 08:08:08;;;;;;;13.48;8.88;;;;;;;14.59;100.00;100854.72;5144700;28;20054;-73
2023/05/06 08:10:38;;;;;;;12.55;7.65;;;;;;;15.42;100.00;100847.09;5143398;28;20027;-74
2023/05/06 08:13:08;;;;;;;12.85;7.65;;;;;;;15.68;100.00;100853.66;5146374;28;20500;-74
2023/05/06 08:15:39;;;;;;;11.93;7.65;;;;;;;16.16;100.00;100853.66;5144839;28;20026;-75
2023/05/06 08:18:10;;;;;;;11.15;7.43;;;;;;;16.15;100.00;100850.19;5137337;28;20026;-76
2023/05/06 08:20:40;;;;;;;10.77;6.93;;;;;;;16.00;100.00;100863.31;5146096;28;20117;-73
2023/05/06 08:23:10;;;;;;;11.75;6.78;;;;;;;16.37;100.00;100857.84;5144840;28;20046;-75
2023/05/06 08:25:40;;;;;;;19.55;10.15;;;;;;;16.54;100.00;100855.97;5146416;28;20479;-72
2023/05/06 08:28:11;;;;;;;18.73;9.48;;;;;;;16.60;100.00;100853.00;5143313;28;20026;-74
2023/05/06 08:30:41;;;;;;;13.80;8.02;;;;;;;16.55;100.00;100867.38;5141390;28;20031;-76
2023/05/06 08:33:11;;;;;;;11.77;7.47;;;;;;;16.29;100.00;100868.78;5145674;28;20030;-76
2023/05/06 08:35:42;;;;;;;17.95;9.82;;;;;;;16.03;100.00;100873.75;5143651;28;20027;-75
2023/05/06 08:38:12;;;;;;;14.43;8.05;;;;;;;15.95;100.00;100878.53;5142534;28;20085;-77
2023/05/06 08:40:43;;;;;;;16.42;9.65;;;;;;;16.72;100.00;100865.50;5147710;28;20030;-77
2023/05/06 08:43:18;;;;;;;15.73;8.52;;;;;;;18.49;93.02;100857.44;5147278;28;20123;-77
2023/05/06 08:45:49;;;;;;;13.73;7.05;;;;;;;19.91;86.59;100861.03;5146647;28;20034;-74
2023/05/06 08:48:19;;;;;;;18.60;9.55;;;;;;;19.50;84.95;100869.19;5137163;28;20027;-73
2023/05/06 08:50:52;;;;;;;10.02;6.65;;;;;;;19.00;88.68;100869.03;5145369;28;20385;-75
2023/05/06 08:53:23;;;;;;;9.30;6.10;;;;;;;17.60;91.94;100868.25;5157583;23;20043;-72
2023/05/06 08:55:55;;;;;;;8.55;5.72;;;;;;;18.01;92.34;100873.69;5123079;28;20043;-71
2023/05/06 08:58:26;;;;;;;12.70;7.25;;;;;;;18.89;88.37;100870.66;5120355;28;20548;-72
2023/05/06 09:00:57;;;;;;;12.18;7.88;;;;;;;19.17;85.67;100863.50;5122335;28;20038;-72
2023/05/06 09:03:27;;;;;;;9.30;6.10;;;;;;;19.67;85.17;100868.91;5127537;28;20150;-72
2023/05/06 09:05:57;;;;;;;8.85;5.70;;;;;;;20.31;84.10;100866.16;5119503;28;20102;-72
2023/05/06 09:08:28;;;;;;;7.55;5.20;;;;;;;20.64;80.06;100866.38;5118671;28;20513;-71
2023/05/06 09:10:58;;;;;;;10.20;5.83;;;;;;;20.85;79.29;100859.53;5125883;28;20030;-72
2023/05/06 09:13:29;;;;;;;7.35;4.63;;;;;;;21.26;79.83;100862.66;5124612;28;20320;-71
2023/05/06 09:15:59;;;;;;;8.30;5.43;;;;;;;21.01;79.83;100855.66;5119044;28;20761;-73
2023/05/06 09:18:29;;;;;;;8.47;5.30;;;;;;;20.12;79.87;100857.78;5124117;28;20038;-71
2023/05/06 09:21:03;;;;;;;7.82;4.82;;;;;;;20.98;77.36;100855.03;5127040;28;20277;-70
2023/05/06 09:23:33;;;;;;;7.05;4.50;;;;;;;20.70;76.04;100865.97;5129504;28;20097;-71
2023/05/06 09:26:04;;;;;;;7.40;4.60;;;;;;;20.11;77.58;100864.03;5129938;28;20022;-72
2023/05/06 09:28:34;;;;;;;7.13;4.30;;;;;;;19.73;79.14;100864.97;5139089;28;20043;-71
2023/05/06 09:31:05;;;;;;;7.55;4.60;;;;;;;19.62;80.75;100865.69;5129188;28;20085;-71
2023/05/06 09:33:36;;;;;;;6.35;4.30;;;;;;;19.14;79.84;100868.94;5114065;28;20211;-72
2023/05/06 09:36:06;;;;;;;7.70;4.78;;;;;;;18.85;83.57;100879.75;5124544;28;20025;-73
2023/05/06 09:38:37;;;;;;;10.90;5.78;;;;;;;18.31;83.58;100877.13;5117885;28;21289;-70
2023/05/06 09:41:07;;;;;;;32.60;10.90;;;;;;;18.22;89.88;100872.34;5122483;28;20027;-70
2023/05/06 09:43:40;;;;;;;13.05;5.90;;;;;;;17.85;90.88;100872.91;5115957;28;20299;-71
2023/05/06 09:46:11;;;;;;;9.25;5.13;;;;;;;18.18;90.05;100870.84;5118608;28;20035;-71
2023/05/06 09:48:42;;;;;;;7.93;4.70;;;;;;;18.01;89.45;100874.50;5117487;28;20054;-69
2023/05/06 09:51:12;;;;;;;18.65;7.15;;;;;;;18.12;90.28;100881.78;5120249;28;20503;-71
2023/05/06 09:53:44;;;;;;;17.27;7.00;;;;;;;18.61;86.87;100880.47;5121042;28;20409;-70
2023/05/06 09:56:15;;;;;;;18.25;7.10;;;;;;;18.99;87.10;100877.06;5122652;28;20565;-72
2023/05/06 09:58:46;;;;;;;20.80;8.07;;;;;;;18.70;86.63;100877.25;5117069;28;20255;-72
2023/05/06 10:01:17;;;;;;;7.90;4.50;;;;;;;19.13;82.14;100880.50;5122650;28;20029;-71
2023/05/06 10:03:50;;;;;;;8.68;5.38;;;;;;;19.41;80.90;100879.56;5125902;28;20452;-71
2023/05/06 10:06:22;;;;;;;8.50;5.07;;;;;;;19.46;81.24;100875.63;5127753;28;20050;-72
2023/05/06 10:08:53;;;;;;;7.45;4.00;;;;;;;19.43;81.03;100872.38;5126330;28;20139;-72
2023/05/06 10:11:25;;;;;;;10.48;5.53;;;;;;;19.68;84.75;100875.91;5128101;28;20031;-71
2023/05/06 10:13:55;;;;;;;8.32;4.65;;;;;;;19.58;77.77;100866.03;5124757;28;20039;-71
2023/05/06 10:16:26;;;;;;;6.60;4.00;;;;;;;19.03;77.77;100876.75;5125773;28;20037;-71
2023/05/06 10:18:58;;;;;;;8.55;4.32;;;;;;;18.81;82.38;100873.81;5126754;28;20057;-72
2023/05/06 10:21:33;;;;;;;7.57;4.43;;;;;;;18.92;85.30;100881.06;5126129;28;20520;-71
2023/05/06 10:24:10;;;;;;;9.48;4.40;;;;;;;19.17;84.91;100870.59;5129002;28;20511;-71
2023/05/06 10:26:41;;;;;;;7.68;3.65;;;;;;;19.29;81.91;100867.97;5123967;28;20060;-72
2023/05/06 10:29:12;;;;;;;6.70;4.00;;;;;;;19.42;82.64;100868.84;5127178;28;20046;-71
2023/05/06 10:31:51;;;;;;;7.03;3.83;;;;;;;19.45;79.83;100860.69;5125485;28;20620;-70
2023/05/06 10:34:22;;;;;;;6.60;3.55;;;;;;;19.14;81.74;100870.75;5126788;28;20125;-71
2023/05/06 10:36:56;;;;;;;8.15;4.43;;;;;;;18.95;80.72;100870.25;5124721;28;20121;-73
2023/05/06 10:39:26;;;;;;;7.22;4.40;;;;;;;19.01;78.81;100870.72;5122288;28;20251;-72
2023/05/06 10:41:57;;;;;;;7.32;4.10;;;;;;;19.26;81.27;100865.53;5127601;28;20513;-72
2023/05/06 10:44:55;;;;;;;6.07;3.95;;;;;;;19.34;80.35;100860.56;5125309;28;20024;-72
2023/05/06 10:47:26;;;;;;;7.35;3.80;;;;;;;19.12;79.19;100872.66;5122108;28;20547;-70
2023/05/06 10:50:18;;;;;;;7.55;3.90;;;;;;;18.73;80.94;100865.50;5127533;28;20050;-72
2023/05/06 10:52:51;;;;;;;6.55;3.90;;;;;;;18.87;79.77;100860.16;5118678;28;20047;-71
2023/05/06 10:55:36;;;;;;;7.88;3.92;;;;;;;19.25;81.40;100863.81;5110916;28;20039;-71
2023/05/06 10:58:09;;;;;;;9.17;4.17;;;;;;;18.99;78.04;100862.03;5106255;28;20417;-72
2023/05/06 11:00:40;;;;;;;4.75;2.63;;;;;;;18.92;77.04;100859.88;5109322;28;20155;-73
2023/05/06 11:03:12;;;;;;;5.13;2.95;;;;;;;18.92;79.45;100855.41;5111494;28;20023;-72
2023/05/06 11:05:50;;;;;;;6.43;2.60;;;;;;;19.33;76.42;100856.22;5109633;28;20035;-72
2023/05/06 11:08:23;;;;;;;5.30;2.30;;;;;;;19.53;76.30;100845.13;5110738;28;20058;-70
2023/05/06 11:10:53;;;;;;;3.58;2.05;;;;;;;19.22;74.34;100857.88;5114649;28;20226;-72
2023/05/06 11:13:28;;;;;;;3.13;1.88;;;;;;;19.72;75.97;100856.16;5113290;28;20053;-71
2023/05/06 11:16:00;;;;;;;3.90;2.13;;;;;;;19.58;77.15;100856.25;5126054;28;20044;-72
2023/05/06 11:18:32;;;;;;;4.88;2.60;;;;;;;19.06;80.19;100862.44;5114367;28;20022;-71
2023/05/06 11:21:06;;;;;;;6.43;2.83;;;;;;;18.83;80.76;100860.47;5114317;28;20470;-72
2023/05/06 11:23:48;;;;;;;4.25;2.30;;;;;;;18.66;77.52;100873.94;5117363;28;20113;-70
2023/05/06 11:26:19;;;;;;;4.32;2.35;;;;;;;18.56;79.88;100867.53;5112668;28;20989;-72
2023/05/06 11:28:50;;;;;;;5.20;2.65;;;;;;;18.34;81.09;100868.97;5110230;28;20097;-71